Time;durP1;ratioP1;P1;durP2;ratioP2;P2;SDS_P1;SDS_P2;PMS_P1;PMS_P2;Temp;Humidity;BMP_temperature;BMP_pressure;BME280_temperature;BME280_humidity;BME280_pressure;Samples;Min_cycle;Max_cycle;Signal;HPM_P1;HPM_P2
2022/01/04 00:00:45;;;;;;;16.75;5.05;;;8.70;99.90;;;;;;5112550;27;20092;-69
2022/01/04 00:03:11;;;;;;;16.25;5.43;;;8.60;99.90;;;;;;5100370;28;20043;-74
2022/01/04 00:05:37;;;;;;;14.55;5.55;;;8.50;99.90;;;;;;5129655;27;20394;-72
2022/01/04 00:08:08;;;;;;;25.70;6.97;;;8.40;99.90;;;;;;5130356;27;20031;-72
2022/01/04 00:10:34;;;;;;;21.58;6.00;;;8.90;99.90;;;;;;5136124;27;20039;-71
2022/01/04 00:15:44;;;;;;;22.27;6.47;;;8.60;99.90;;;;;;5135103;27;20125;-70
2022/01/04 00:18:13;;;;;;;25.90;6.30;;;8.70;99.90;;;;;;5102483;27;20378;-73
2022/01/04 00:20:39;;;;;;;15.98;5.65;;;8.60;99.90;;;;;;5116850;27;20026;-70
2022/01/04 00:23:05;;;;;;;18.33;5.75;;;8.90;99.90;;;;;;5134267;27;20768;-72
2022/01/04 00:25:32;;;;;;;23.55;6.15;;;8.80;99.90;;;;;;5133982;27;20103;-70
2022/01/04 00:27:58;;;;;;;22.58;7.38;;;8.50;99.90;;;;;;5118309;27;20084;-71
2022/01/04 00:30:28;;;;;;;20.25;5.82;;;8.40;99.90;;;;;;5116607;27;20477;-70
2022/01/04 00:32:55;;;;;;;17.77;5.57;;;8.40;99.90;;;;;;5119494;27;20075;-70
2022/01/04 00:35:20;;;;;;;19.40;5.90;;;8.80;99.90;;;;;;5117085;27;20042;-73
2022/01/04 00:37:46;;;;;;;24.65;6.07;;;8.60;99.90;;;;;;5113879;27;20490;-72
2022/01/04 00:40:12;;;;;;;19.38;5.90;;;8.40;99.90;;;;;;5099107;27;20026;-70
2022/01/04 00:42:38;;;;;;;22.55;7.18;;;8.70;99.90;;;;;;5136043;27;20073;-73
2022/01/04 00:45:04;;;;;;;23.20;6.50;;;8.50;99.90;;;;;;5134943;27;20118;-72
2022/01/04 00:47:43;;;;;;;24.98;6.53;;;8.50;99.90;;;;;;5118834;27;20099;-71
2022/01/04 00:50:09;;;;;;;20.35;6.72;;;8.60;99.90;;;;;;5133082;27;20043;-73
2022/01/04 00:52:35;;;;;;;21.38;6.65;;;8.50;99.90;;;;;;5135811;27;20113;-73
2022/01/04 00:55:01;;;;;;;16.83;6.00;;;8.60;99.90;;;;;;5115246;27;20450;-71
2022/01/04 00:57:26;;;;;;;20.52;6.30;;;8.50;99.90;;;;;;5133026;27;20565;-73
2022/01/04 00:59:52;;;;;;;19.20;6.10;;;8.60;99.90;;;;;;5118263;27;20111;-75
2022/01/04 01:02:18;;;;;;;22.08;6.63;;;8.40;99.90;;;;;;5132747;27;20034;-72
2022/01/04 01:04:44;;;;;;;17.98;6.18;;;8.80;99.90;;;;;;5135362;27;20113;-73
2022/01/04 01:07:09;;;;;;;22.42;6.50;;;8.40;99.90;;;;;;5129319;27;20043;-71
2022/01/04 01:09:43;;;;;;;17.65;6.20;;;8.60;99.90;;;;;;5117907;27;20087;-72
2022/01/04 01:12:11;;;;;;;16.02;5.35;;;8.90;99.90;;;;;;5126265;27;20113;-71
2022/01/04 01:14:36;;;;;;;23.05;6.60;;;8.70;99.90;;;;;;5117993;27;20087;-70
2022/01/04 01:17:02;;;;;;;16.55;5.90;;;8.90;99.90;;;;;;5099254;27;20031;-72
2022/01/04 01:19:28;;;;;;;23.48;7.18;;;8.80;99.90;;;;;;5116502;27;20103;-73
2022/01/04 01:21:54;;;;;;;21.85;5.90;;;8.90;99.90;;;;;;5134000;27;20039;-74
2022/01/04 01:24:19;;;;;;;18.95;6.95;;;8.70;99.90;;;;;;5116119;27;20067;-71
2022/01/04 01:26:45;;;;;;;20.48;7.80;;;8.60;99.90;;;;;;5115895;27;20066;-72
2022/01/04 01:29:11;;;;;;;25.65;7.32;;;9.00;99.90;;;;;;5115807;27;20087;-71
2022/01/04 01:31:37;;;;;;;23.63;8.18;;;8.90;99.90;;;;;;5133815;27;20830;-74
2022/01/04 01:34:03;;;;;;;19.02;7.05;;;8.90;99.90;;;;;;5135166;27;20095;-74
2022/01/04 01:36:31;;;;;;;16.95;7.22;;;9.20;99.90;;;;;;5133372;27;20041;-73
2022/01/04 01:38:56;;;;;;;23.00;6.80;;;9.10;99.90;;;;;;5132766;27;20034;-75
2022/01/04 01:41:22;;;;;;;30.65;6.65;;;8.80;99.90;;;;;;5116324;27;20537;-72
2022/01/04 01:43:48;;;;;;;25.88;7.65;;;9.10;99.90;;;;;;5134413;27;20039;-73
2022/01/04 01:46:14;;;;;;;22.23;6.93;;;8.80;99.90;;;;;;5099252;27;20081;-72
2022/01/04 01:48:39;;;;;;;20.50;6.80;;;9.00;99.90;;;;;;5130204;27;20089;-73
2022/01/04 01:51:05;;;;;;;25.05;7.15;;;8.80;99.90;;;;;;5118710;27;20331;-72
2022/01/04 01:53:31;;;;;;;17.27;6.82;;;8.70;99.90;;;;;;5095255;27;20068;-72
2022/01/04 01:55:57;;;;;;;19.20;6.72;;;8.90;99.90;;;;;;5131404;27;20039;-73
2022/01/04 01:58:23;;;;;;;25.65;7.78;;;9.00;99.90;;;;;;5116081;27;20076;-75
2022/01/04 02:00:49;;;;;;;21.38;6.70;;;9.20;99.90;;;;;;5110966;27;20069;-73
2022/01/04 02:03:14;;;;;;;28.10;8.15;;;8.80;99.90;;;;;;5129882;27;20038;-72
2022/01/04 02:05:40;;;;;;;19.02;7.10;;;8.80;99.90;;;;;;5113334;27;20053;-72
2022/01/04 02:08:08;;;;;;;26.13;7.10;;;9.20;99.90;;;;;;5130980;27;20447;-69
2022/01/04 02:10:33;;;;;;;20.25;6.80;;;8.90;99.90;;;;;;5129590;27;20039;-72
2022/01/04 02:13:00;;;;;;;24.98;6.15;;;9.10;99.90;;;;;;5086823;27;20508;-74
2022/01/04 02:15:29;;;;;;;22.02;6.35;;;8.90;99.90;;;;;;5110097;27;20039;-72
2022/01/04 02:17:55;;;;;;;21.40;6.90;;;9.10;99.90;;;;;;5128322;27;20039;-71
2022/01/04 02:20:21;;;;;;;29.98;7.30;;;8.90;99.90;;;;;;5110208;27;20091;-73
2022/01/04 02:22:49;;;;;;;21.27;5.97;;;9.30;99.90;;;;;;5126696;27;20039;-73
2022/01/04 02:25:15;;;;;;;18.88;5.50;;;9.20;99.90;;;;;;5112201;27;20587;-74
2022/01/04 02:27:41;;;;;;;18.50;6.00;;;9.10;99.90;;;;;;5131076;27;20063;-72
2022/01/04 02:30:10;;;;;;;20.02;5.40;;;9.20;99.90;;;;;;5113170;27;20035;-71
2022/01/04 02:32:36;;;;;;;25.60;6.72;;;8.90;99.90;;;;;;5110228;27;20042;-72
2022/01/04 02:35:03;;;;;;;20.00;5.95;;;9.00;99.90;;;;;;5107544;27;20032;-71
2022/01/04 02:37:30;;;;;;;27.42;7.03;;;8.70;99.90;;;;;;5127927;27;20039;-72
2022/01/04 02:39:56;;;;;;;27.08;6.85;;;9.10;99.90;;;;;;5095551;27;20039;-71
2022/01/04 02:42:22;;;;;;;16.73;5.70;;;8.70;99.90;;;;;;5109080;27;20049;-72
2022/01/04 02:44:48;;;;;;;27.25;6.68;;;9.00;99.90;;;;;;5093601;27;20050;-73
2022/01/04 02:47:14;;;;;;;22.20;5.50;;;8.70;99.90;;;;;;5129104;27;20039;-72
2022/01/04 02:49:40;;;;;;;32.97;8.07;;;9.00;99.90;;;;;;5112081;27;20127;-70
2022/01/04 02:52:07;;;;;;;27.60;7.30;;;8.70;99.90;;;;;;5111389;27;20035;-74
2022/01/04 02:54:33;;;;;;;25.45;5.70;;;9.10;99.90;;;;;;5128538;27;20043;-73
2022/01/04 02:56:59;;;;;;;23.02;6.20;;;8.70;99.90;;;;;;5107937;28;20047;-72
2022/01/04 02:59:25;;;;;;;20.73;6.40;;;8.70;99.90;;;;;;5123674;27;20050;-72
2022/01/04 03:01:51;;;;;;;18.17;6.00;;;9.00;99.90;;;;;;5128658;27;20114;-71
2022/01/04 03:04:17;;;;;;;22.95;5.45;;;8.90;99.90;;;;;;5110659;27;20123;-72
2022/01/04 03:06:42;;;;;;;21.00;5.70;;;8.70;99.90;;;;;;5109548;28;20077;-74
2022/01/04 03:09:08;;;;;;;30.92;6.22;;;9.00;99.90;;;;;;5123921;27;20038;-73
2022/01/04 03:11:34;;;;;;;19.88;5.28;;;9.20;99.90;;;;;;5112477;27;20039;-69
2022/01/04 03:14:00;;;;;;;23.35;6.43;;;9.00;99.90;;;;;;5127429;27;20580;-73
2022/01/04 03:16:26;;;;;;;25.40;6.13;;;9.20;99.90;;;;;;5112459;28;20043;-73
2022/01/04 03:21:21;;;;;;;21.45;6.07;;;9.00;99.90;;;;;;5109367;28;20051;-72
2022/01/04 03:23:47;;;;;;;18.90;6.22;;;8.90;99.90;;;;;;5120916;28;20042;-72
2022/01/04 03:26:12;;;;;;;16.02;5.70;;;9.10;99.90;;;;;;5110349;28;20079;-72
2022/01/04 03:28:40;;;;;;;21.30;5.68;;;9.10;99.90;;;;;;5129597;28;20039;-72
2022/01/04 03:31:07;;;;;;;18.15;6.05;;;9.10;99.90;;;;;;5124755;28;20387;-73
2022/01/04 03:33:34;;;;;;;21.75;6.03;;;8.60;99.90;;;;;;5124557;28;20027;-73
2022/01/04 03:36:01;;;;;;;24.88;6.10;;;8.90;99.90;;;;;;5127408;28;20074;-71
2022/01/04 03:38:27;;;;;;;19.65;5.45;;;8.70;99.90;;;;;;5129145;28;20027;-72
2022/01/04 03:40:54;;;;;;;17.67;6.10;;;9.00;99.90;;;;;;5110205;28;20443;-72
2022/01/04 03:43:21;;;;;;;16.52;6.05;;;8.60;99.90;;;;;;5111298;27;20043;-71
2022/01/04 03:45:47;;;;;;;20.80;6.00;;;9.00;99.90;;;;;;5130986;27;20047;-70
2022/01/04 03:48:13;;;;;;;17.75;5.65;;;8.80;99.90;;;;;;5116279;27;20054;-73
2022/01/04 03:50:40;;;;;;;19.05;6.30;;;8.80;99.90;;;;;;5112160;28;20043;-70
2022/01/04 03:53:06;;;;;;;22.10;6.57;;;8.90;99.90;;;;;;5113220;28;20047;-70
2022/01/04 03:55:32;;;;;;;18.23;5.93;;;8.90;99.90;;;;;;5132661;27;20039;-72
2022/01/04 03:57:58;;;;;;;19.58;6.45;;;8.80;99.90;;;;;;5137556;27;20043;-74
2022/01/04 04:00:24;;;;;;;22.75;6.40;;;8.70;99.90;;;;;;5135648;27;20371;-72
2022/01/04 04:02:50;;;;;;;22.33;6.53;;;8.70;99.90;;;;;;5137063;27;20034;-72
2022/01/04 04:05:15;;;;;;;21.90;7.25;;;8.80;99.90;;;;;;5136052;27;20042;-72
2022/01/04 04:07:42;;;;;;;26.63;8.10;;;8.80;99.90;;;;;;5135876;27;20046;-72
2022/01/04 04:10:08;;;;;;;23.95;6.65;;;9.00;99.90;;;;;;5118990;27;20037;-71
2022/01/04 04:12:34;;;;;;;22.20;6.55;;;8.70;99.90;;;;;;5129036;27;20070;-70
2022/01/04 04:15:04;;;;;;;18.88;5.72;;;8.90;99.90;;;;;;5136557;27;20126;-72
2022/01/04 04:17:30;;;;;;;29.77;7.45;;;9.10;99.90;;;;;;5135726;27;20378;-72
2022/01/04 04:19:56;;;;;;;18.95;6.03;;;8.80;99.90;;;;;;5134387;27;20040;-73
2022/01/04 04:22:22;;;;;;;27.15;6.18;;;8.70;99.90;;;;;;5136146;27;20129;-72
2022/01/04 04:24:47;;;;;;;17.85;5.50;;;9.00;99.90;;;;;;5117966;27;20035;-71
2022/01/04 04:27:14;;;;;;;25.23;5.90;;;8.90;99.90;;;;;;5136069;27;20030;-73
2022/01/04 04:29:40;;;;;;;22.52;6.38;;;8.90;99.90;;;;;;5129229;27;20035;-75
2022/01/04 04:32:07;;;;;;;20.05;5.20;;;9.00;99.90;;;;;;5136140;27;20065;-71
2022/01/04 04:34:32;;;;;;;25.95;6.93;;;9.10;99.90;;;;;;5133980;27;20521;-71
2022/01/04 04:36:58;;;;;;;20.17;6.25;;;8.70;99.90;;;;;;5135285;27;20070;-72
2022/01/04 04:39:24;;;;;;;17.92;5.53;;;8.70;99.90;;;;;;5134544;27;20062;-71
2022/01/04 04:41:50;;;;;;;16.27;6.47;;;8.70;99.90;;;;;;5132952;27;20087;-73
2022/01/04 04:44:16;;;;;;;17.75;4.78;;;8.90;99.90;;;;;;5135752;27;20129;-72
2022/01/04 04:46:42;;;;;;;16.70;5.57;;;8.60;99.90;;;;;;5109768;27;20034;-73
2022/01/04 04:49:07;;;;;;;23.73;7.65;;;9.00;99.90;;;;;;5118087;27;20038;-73
2022/01/04 04:51:33;;;;;;;23.33;6.03;;;8.60;99.90;;;;;;5132241;27;20106;-75
2022/01/04 04:53:59;;;;;;;25.92;8.98;;;8.60;99.90;;;;;;5088192;27;20394;-73
2022/01/04 04:56:25;;;;;;;18.30;7.05;;;8.80;99.90;;;;;;5132263;27;20048;-70
2022/01/04 04:58:50;;;;;;;21.05;7.05;;;8.60;99.90;;;;;;5118259;27;20043;-73
2022/01/04 05:01:16;;;;;;;28.02;8.05;;;9.00;99.90;;;;;;5115714;27;20070;-72
2022/01/04 05:03:42;;;;;;;17.40;6.95;;;9.00;99.90;;;;;;5095873;27;20031;-74
2022/01/04 05:06:07;;;;;;;36.47;10.18;;;8.90;99.90;;;;;;5124038;27;20050;-72
2022/01/04 05:08:33;;;;;;;23.23;8.25;;;9.10;99.90;;;;;;5133797;27;20038;-74
2022/01/04 05:10:59;;;;;;;29.17;8.88;;;8.80;99.90;;;;;;5134628;27;20046;-73
2022/01/04 05:13:24;;;;;;;30.67;9.60;;;9.20;99.90;;;;;;5129966;27;20038;-71
2022/01/04 05:15:50;;;;;;;19.20;8.80;;;9.10;99.90;;;;;;5135010;27;20409;-75
2022/01/04 05:18:16;;;;;;;26.48;8.45;;;9.10;99.90;;;;;;5132394;27;20043;-73
2022/01/04 05:20:42;;;;;;;31.65;9.43;;;8.90;99.90;;;;;;5130553;27;20049;-73
2022/01/04 05:23:07;;;;;;;21.50;8.57;;;9.10;99.90;;;;;;5098480;27;20035;-72
2022/01/04 05:25:33;;;;;;;27.90;9.07;;;9.00;99.90;;;;;;5098834;27;20070;-70
2022/01/04 05:27:59;;;;;;;24.33;8.68;;;9.00;99.90;;;;;;5116222;27;20517;-75
2022/01/04 05:30:24;;;;;;;27.95;8.07;;;8.80;99.90;;;;;;5132562;27;20073;-70
2022/01/04 05:32:50;;;;;;;24.92;8.95;;;8.80;99.90;;;;;;5117245;27;20039;-72
2022/01/04 05:35:16;;;;;;;23.88;8.93;;;8.90;99.90;;;;;;5133519;27;20030;-72
2022/01/04 05:37:41;;;;;;;23.20;8.23;;;9.30;99.90;;;;;;5116619;27;20031;-74
2022/01/04 05:40:08;;;;;;;26.65;8.20;;;9.30;99.90;;;;;;5133599;27;20122;-73
2022/01/04 05:42:33;;;;;;;29.35;9.25;;;8.90;99.90;;;;;;5103231;27;20043;-71
2022/01/04 05:44:59;;;;;;;20.58;8.68;;;9.00;99.90;;;;;;5123735;27;20042;-72
2022/01/04 05:47:25;;;;;;;26.85;8.73;;;8.90;99.90;;;;;;5116109;27;20034;-71
2022/01/04 05:49:52;;;;;;;25.08;10.18;;;8.90;99.90;;;;;;5113836;27;20517;-69
2022/01/04 05:52:18;;;;;;;29.42;9.88;;;8.80;99.90;;;;;;5128320;27;20035;-74
2022/01/04 05:54:45;;;;;;;22.60;8.65;;;9.00;99.90;;;;;;5115175;27;20047;-71
2022/01/04 05:57:10;;;;;;;17.77;8.43;;;8.90;99.90;;;;;;5132995;27;20058;-74
2022/01/04 05:59:36;;;;;;;29.80;9.55;;;8.70;99.90;;;;;;5096398;27;20035;-73
2022/01/04 06:02:02;;;;;;;24.05;9.35;;;9.20;99.90;;;;;;5113361;27;20072;-75
2022/01/04 06:04:28;;;;;;;26.08;9.07;;;8.60;99.90;;;;;;5114850;27;20406;-73
2022/01/04 06:06:54;;;;;;;19.30;9.25;;;8.90;99.90;;;;;;5116229;27;20039;-73
2022/01/04 06:09:29;;;;;;;23.48;8.77;;;8.70;99.90;;;;;;5096581;27;20498;-73
2022/01/04 06:17:07;;;;;;;31.30;9.48;;;8.90;99.90;;;;;;5117492;27;20043;-72
2022/01/04 06:19:33;;;;;;;24.77;9.60;;;8.90;99.90;;;;;;5127143;27;20417;-70
2022/01/04 06:21:58;;;;;;;28.75;10.88;;;9.50;99.90;;;;;;5124691;27;20079;-70
2022/01/04 06:24:24;;;;;;;20.85;8.65;;;9.40;99.90;;;;;;5092260;27;20039;-72
2022/01/04 06:26:52;;;;;;;22.30;8.68;;;9.40;99.90;;;;;;5130563;27;20050;-72
2022/01/04 06:29:20;;;;;;;29.02;10.40;;;9.40;99.90;;;;;;5089633;27;20075;-71
2022/01/04 06:31:46;;;;;;;24.13;9.93;;;9.50;99.90;;;;;;5114634;27;20129;-74
2022/01/04 06:34:11;;;;;;;27.85;9.45;;;9.10;99.90;;;;;;5089782;27;20678;-71
2022/01/04 06:36:37;;;;;;;25.90;9.70;;;9.50;99.90;;;;;;5109905;27;20126;-74
2022/01/04 06:39:03;;;;;;;24.42;9.25;;;9.10;99.90;;;;;;5092125;27;20027;-70
2022/01/04 06:41:29;;;;;;;19.63;8.25;;;9.60;99.90;;;;;;5097445;27;20122;-73
2022/01/04 06:43:55;;;;;;;22.85;7.80;;;9.00;99.90;;;;;;5115527;27;21674;-72
2022/01/04 06:46:20;;;;;;;31.00;9.35;;;9.40;99.90;;;;;;5126621;27;20520;-73
2022/01/04 06:48:46;;;;;;;27.05;9.05;;;9.50;99.90;;;;;;5126917;27;20204;-70
2022/01/04 06:51:12;;;;;;;22.05;8.38;;;9.50;99.90;;;;;;5099127;27;20051;-72
2022/01/04 06:53:37;;;;;;;24.85;8.73;;;9.10;99.90;;;;;;5124364;27;20050;-72
2022/01/04 06:56:03;;;;;;;22.52;8.65;;;9.20;99.90;;;;;;5097754;27;20051;-72
2022/01/04 06:58:30;;;;;;;23.30;8.88;;;9.00;99.90;;;;;;5109181;27;20074;-74
2022/01/04 07:00:56;;;;;;;27.23;9.00;;;9.00;99.90;;;;;;5128061;27;20408;-73
2022/01/04 07:03:22;;;;;;;21.30;8.00;;;9.50;99.90;;;;;;5129348;27;20478;-70
2022/01/04 07:05:47;;;;;;;23.85;8.48;;;8.90;99.90;;;;;;5096861;27;20045;-74
2022/01/04 07:08:13;;;;;;;21.42;7.85;;;9.30;99.90;;;;;;5114441;27;20049;-73
2022/01/04 07:10:39;;;;;;;20.90;8.13;;;9.20;99.90;;;;;;5115361;27;20046;-74
2022/01/04 07:13:04;;;;;;;17.45;6.20;;;9.20;99.90;;;;;;5133162;27;20102;-73
2022/01/04 07:15:30;;;;;;;16.80;6.47;;;9.10;99.90;;;;;;5111730;27;20138;-74
2022/01/04 07:17:56;;;;;;;17.90;7.22;;;9.00;99.90;;;;;;5111195;27;20675;-74
2022/01/04 07:20:21;;;;;;;14.95;6.13;;;9.30;99.90;;;;;;5128593;27;20035;-73
2022/01/04 07:22:47;;;;;;;16.63;6.07;;;9.20;99.90;;;;;;5115570;27;20031;-72
2022/01/04 07:25:13;;;;;;;13.52;6.00;;;9.30;99.90;;;;;;5111619;27;20034;-73
2022/01/04 07:27:39;;;;;;;16.85;6.63;;;9.20;99.90;;;;;;5129448;27;20390;-72
2022/01/04 07:30:05;;;;;;;12.10;6.15;;;9.20;99.90;;;;;;5113130;27;20035;-74
2022/01/04 07:32:31;;;;;;;20.92;6.45;;;8.90;99.90;;;;;;5131222;27;20066;-75
2022/01/04 07:34:56;;;;;;;19.48;7.93;;;9.00;99.90;;;;;;5127621;27;20463;-72
2022/01/04 07:37:23;;;;;;;19.67;7.38;;;9.30;99.90;;;;;;5097212;27;20072;-74
2022/01/04 07:39:50;;;;;;;19.90;7.75;;;9.30;99.90;;;;;;5126613;28;20394;-73
2022/01/04 07:42:16;;;;;;;19.70;6.75;;;9.00;99.90;;;;;;5129999;27;20117;-76
2022/01/04 07:44:42;;;;;;;20.55;7.07;;;9.00;99.90;;;;;;5126149;27;20058;-73
2022/01/04 07:47:07;;;;;;;19.60;6.25;;;9.30;99.90;;;;;;5110038;28;20506;-76
2022/01/04 07:49:33;;;;;;;13.48;5.05;;;8.90;99.90;;;;;;5107592;27;20042;-74
2022/01/04 07:51:59;;;;;;;16.35;6.53;;;9.30;99.90;;;;;;5115827;27;20038;-73
2022/01/04 07:54:24;;;;;;;12.07;5.47;;;8.80;99.90;;;;;;5131774;27;20410;-73
2022/01/04 07:56:53;;;;;;;12.80;5.03;;;9.30;99.90;;;;;;5092617;27;20136;-75
2022/01/04 07:59:20;;;;;;;14.30;4.80;;;8.70;99.90;;;;;;5130879;27;20046;-75
2022/01/04 08:01:46;;;;;;;11.02;4.70;;;9.20;99.90;;;;;;5114931;27;20443;-74
2022/01/04 08:04:11;;;;;;;13.65;5.18;;;8.90;99.90;;;;;;5131330;27;20113;-75
2022/01/04 08:06:39;;;;;;;15.48;4.28;;;9.10;99.90;;;;;;5114475;27;20071;-74
2022/01/04 08:09:05;;;;;;;10.55;3.55;;;8.70;99.90;;;;;;5112969;27;20061;-72
2022/01/04 08:11:31;;;;;;;8.98;2.40;;;9.10;99.90;;;;;;5112653;27;20049;-73
2022/01/04 08:13:57;;;;;;;9.60;3.20;;;8.70;99.90;;;;;;5112926;27;20042;-72
2022/01/04 08:16:22;;;;;;;12.52;3.05;;;9.10;99.90;;;;;;5129509;27;20439;-73
2022/01/04 08:18:48;;;;;;;12.60;3.40;;;8.60;99.90;;;;;;5129339;27;20035;-74
2022/01/04 08:21:14;;;;;;;11.82;4.15;;;8.60;99.90;;;;;;5113206;27;20099;-73
2022/01/04 08:23:40;;;;;;;13.25;3.38;;;8.80;99.90;;;;;;5131667;27;20080;-71
2022/01/04 08:26:05;;;;;;;12.32;3.90;;;8.50;99.90;;;;;;5129819;27;20038;-72
2022/01/04 08:28:31;;;;;;;10.98;3.60;;;9.10;99.90;;;;;;5111449;27;20042;-72
2022/01/04 08:30:57;;;;;;;11.02;3.30;;;9.00;99.90;;;;;;5125787;27;20125;-70
2022/01/04 08:33:23;;;;;;;12.80;3.17;;;8.90;99.90;;;;;;5134703;27;20038;-73
2022/01/04 08:35:49;;;;;;;14.68;4.03;;;8.80;99.90;;;;;;5133210;27;20043;-72
2022/01/04 08:38:15;;;;;;;15.00;4.80;;;8.70;99.90;;;;;;5134888;27;20053;-72
2022/01/04 08:40:40;;;;;;;10.55;3.25;;;9.00;99.90;;;;;;5130592;27;20038;-73
2022/01/04 08:43:06;;;;;;;8.55;3.10;;;8.90;99.90;;;;;;5118642;27;20382;-71
2022/01/04 08:45:33;;;;;;;8.27;3.17;;;9.00;99.90;;;;;;5118578;27;20119;-68
2022/01/04 08:48:00;;;;;;;9.00;3.78;;;8.70;99.90;;;;;;5135473;27;20375;-70
2022/01/04 08:50:27;;;;;;;9.38;3.67;;;8.70;99.90;;;;;;5105373;27;20075;-71
2022/01/04 08:52:54;;;;;;;8.02;3.63;;;8.90;99.90;;;;;;5107264;27;20514;-73
2022/01/04 08:55:21;;;;;;;9.35;4.00;;;8.60;99.90;;;;;;5094730;27;20140;-73
2022/01/04 08:57:47;;;;;;;15.68;5.65;;;8.90;99.90;;;;;;5104271;28;20055;-70
2022/01/04 09:00:14;;;;;;;14.52;5.65;;;8.90;99.90;;;;;;5104159;28;20115;-70
2022/01/04 09:02:40;;;;;;;13.30;5.13;;;8.50;99.90;;;;;;5086273;28;20032;-72
2022/01/04 09:05:06;;;;;;;13.60;5.13;;;8.80;99.90;;;;;;5104040;28;20039;-72
2022/01/04 09:07:33;;;;;;;8.80;3.45;;;8.70;99.90;;;;;;5104064;28;20138;-71
2022/01/04 09:09:58;;;;;;;6.93;2.40;;;8.70;99.90;;;;;;5104167;28;20054;-73
2022/01/04 09:12:29;;;;;;;8.43;2.00;;;8.40;99.90;;;;;;5087753;28;20043;-74
2022/01/04 09:15:04;;;;;;;5.85;1.33;;;8.40;99.90;;;;;;5087558;28;20047;-69
2022/01/04 09:20:14;;;;;;;4.53;1.00;;;7.90;99.90;;;;;;5104584;28;20044;-73
2022/01/04 09:22:40;;;;;;;3.55;1.02;;;8.00;99.90;;;;;;5086890;28;20597;-70
2022/01/04 09:25:08;;;;;;;4.45;1.05;;;7.80;99.90;;;;;;5070488;28;20047;-71
2022/01/04 09:27:34;;;;;;;1.90;1.02;;;7.90;99.90;;;;;;5087409;28;20039;-72
2022/01/04 09:30:03;;;;;;;6.35;1.08;;;7.90;99.90;;;;;;5104377;28;20271;-72
2022/01/04 09:32:31;;;;;;;5.28;1.17;;;7.80;99.90;;;;;;5104356;28;20083;-72
2022/01/04 09:34:58;;;;;;;8.63;2.28;;;8.30;99.90;;;;;;5086468;28;20075;-71
2022/01/04 09:37:24;;;;;;;5.22;0.90;;;8.30;99.90;;;;;;5103212;28;20558;-74
2022/01/04 09:39:51;;;;;;;13.95;2.30;;;8.30;99.90;;;;;;5103076;28;20050;-72
2022/01/04 09:42:20;;;;;;;6.28;1.50;;;8.20;99.90;;;;;;5069144;28;20040;-73
2022/01/04 09:44:47;;;;;;;2.55;0.90;;;7.90;99.90;;;;;;5103148;28;20078;-73
2022/01/04 09:47:12;;;;;;;3.08;0.90;;;8.10;99.90;;;;;;5101798;28;20043;-73
2022/01/04 09:49:38;;;;;;;6.50;0.90;;;7.80;99.90;;;;;;5068912;28;20044;-73
2022/01/04 09:52:05;;;;;;;5.72;0.98;;;7.60;99.90;;;;;;5103277;28;20050;-70
2022/01/04 09:54:32;;;;;;;4.95;1.10;;;7.60;99.90;;;;;;5086712;28;20039;-74
2022/01/04 09:56:59;;;;;;;5.38;1.52;;;7.80;99.90;;;;;;5113172;27;20100;-72
2022/01/04 09:59:24;;;;;;;8.55;1.45;;;7.70;99.90;;;;;;5107125;27;20126;-73
2022/01/04 10:01:55;;;;;;;2.95;1.58;;;7.60;99.90;;;;;;5106980;27;20134;-73
2022/01/04 10:04:24;;;;;;;2.75;0.98;;;7.50;99.90;;;;;;5090589;27;20043;-73
2022/01/04 10:07:04;;;;;;;3.60;0.90;;;7.70;99.90;;;;;;5106719;27;20079;-73
2022/01/04 10:09:48;;;;;;;4.35;1.08;;;7.70;99.90;;;;;;5103244;28;20059;-74
2022/01/04 10:12:16;;;;;;;6.10;0.88;;;7.40;99.90;;;;;;5103337;28;20039;-74
2022/01/04 10:14:46;;;;;;;1.27;0.80;;;7.50;99.90;;;;;;5103115;28;20043;-72
2022/01/04 10:17:19;;;;;;;3.95;0.90;;;7.40;99.90;;;;;;5086172;28;20055;-73
2022/01/04 10:19:48;;;;;;;2.92;1.17;;;7.20;99.90;;;;;;5103302;28;20115;-74
2022/01/04 10:22:13;;;;;;;8.00;1.40;;;7.30;99.90;;;;;;5103678;28;20103;-74
2022/01/04 10:24:41;;;;;;;6.03;1.13;;;7.00;99.90;;;;;;5103025;28;20491;-73
2022/01/04 10:27:22;;;;;;;4.25;1.20;;;7.20;99.90;;;;;;5102931;28;20398;-74
2022/01/04 10:29:48;;;;;;;3.97;1.10;;;6.80;99.90;;;;;;5102778;28;20126;-73
2022/01/04 10:32:14;;;;;;;3.80;1.55;;;6.80;99.90;;;;;;5086295;28;20387;-74
2022/01/04 10:34:50;;;;;;;4.93;1.00;;;6.70;99.90;;;;;;5103162;28;20048;-73
2022/01/04 10:37:40;;;;;;;4.75;0.80;;;7.10;99.90;;;;;;5068860;28;20047;-74
2022/01/04 10:40:08;;;;;;;5.80;0.80;;;7.00;99.90;;;;;;5085810;28;20040;-73
2022/01/04 10:42:34;;;;;;;2.45;0.75;;;7.00;99.90;;;;;;5086299;28;20070;-72
2022/01/04 10:45:19;;;;;;;3.13;0.70;;;7.00;99.90;;;;;;5114137;27;20399;-72
2022/01/04 10:47:44;;;;;;;3.05;0.70;;;6.90;99.90;;;;;;5122549;27;20053;-71
2022/01/04 10:50:10;;;;;;;3.75;0.80;;;6.70;99.90;;;;;;5123032;27;20096;-72
2022/01/04 10:52:36;;;;;;;6.38;0.70;;;6.90;99.90;;;;;;5123136;27;20502;-70
2022/01/04 10:55:14;;;;;;;2.72;0.70;;;7.00;99.90;;;;;;5122007;27;20050;-72
2022/01/04 10:57:40;;;;;;;3.72;0.65;;;6.90;99.90;;;;;;5122822;27;20063;-70
2022/01/04 11:00:17;;;;;;;2.65;0.70;;;6.80;99.90;;;;;;5105402;27;20049;-70
2022/01/04 11:02:43;;;;;;;2.83;0.70;;;6.90;99.90;;;;;;5123287;27;20050;-72
2022/01/04 11:05:18;;;;;;;1.50;0.73;;;6.90;99.90;;;;;;5122573;27;20043;-69
2022/01/04 11:08:17;;;;;;;3.20;0.70;;;6.90;99.90;;;;;;5122942;27;20111;-71
2022/01/04 11:10:43;;;;;;;1.52;0.88;;;6.90;99.90;;;;;;5105300;27;20050;-73
2022/01/04 11:13:09;;;;;;;4.05;0.60;;;6.60;99.90;;;;;;5122084;27;20131;-73
2022/01/04 11:15:34;;;;;;;2.33;0.50;;;6.70;99.90;;;;;;5105222;28;20104;-72
2022/01/04 11:18:01;;;;;;;1.08;0.30;;;6.70;99.90;;;;;;5121758;27;20046;-69
2022/01/04 11:20:26;;;;;;;2.53;0.50;;;6.30;99.90;;;;;;5104662;28;20035;-73
2022/01/04 11:22:56;;;;;;;0.30;0.20;;;6.50;99.90;;;;;;5121999;28;20441;-73
2022/01/04 11:25:23;;;;;;;3.28;0.70;;;6.20;99.90;;;;;;5122194;28;20613;-71
2022/01/04 11:27:51;;;;;;;1.63;1.00;;;6.30;99.90;;;;;;5105048;28;20401;-72
2022/01/04 11:30:48;;;;;;;1.95;0.82;;;6.40;99.90;;;;;;5105413;28;20075;-71
2022/01/04 11:33:30;;;;;;;5.65;1.45;;;6.60;99.90;;;;;;5105277;28;20043;-73
2022/01/04 11:35:57;;;;;;;3.58;0.82;;;6.50;99.90;;;;;;5105284;28;20098;-68
2022/01/04 11:38:31;;;;;;;6.00;1.02;;;6.30;99.90;;;;;;5122267;28;20634;-71
2022/01/04 11:40:58;;;;;;;2.78;0.90;;;6.20;99.90;;;;;;5122456;28;20035;-70
2022/01/04 11:43:41;;;;;;;6.72;1.17;;;6.40;99.90;;;;;;5122105;28;20039;-71
2022/01/04 11:46:07;;;;;;;3.35;0.70;;;6.10;99.90;;;;;;5081420;28;20077;-71
2022/01/04 11:48:32;;;;;;;5.72;1.02;;;6.30;99.90;;;;;;5081484;28;20044;-69
2022/01/04 11:51:07;;;;;;;5.07;1.42;;;6.30;99.90;;;;;;5064205;28;20052;-69
2022/01/04 11:53:34;;;;;;;5.60;0.85;;;6.60;99.90;;;;;;5064559;28;20050;-73
2022/01/04 11:56:03;;;;;;;2.70;0.70;;;6.10;99.90;;;;;;5084579;28;20084;-70
2022/01/04 11:58:50;;;;;;;2.50;0.50;;;6.20;99.90;;;;;;5105157;28;20047;-71
2022/01/04 12:01:25;;;;;;;3.85;1.15;;;6.30;99.90;;;;;;5104733;28;20070;-70
2022/01/04 12:03:54;;;;;;;4.20;1.10;;;6.10;99.90;;;;;;5104697;28;20050;-72
2022/01/04 12:06:33;;;;;;;5.57;0.98;;;6.20;99.90;;;;;;5091366;27;20054;-74
2022/01/04 12:08:59;;;;;;;4.78;1.00;;;6.10;99.90;;;;;;5108891;27;20047;-72
2022/01/04 12:11:25;;;;;;;3.10;0.90;;;6.10;99.90;;;;;;5108902;27;20134;-72
2022/01/04 12:14:02;;;;;;;3.45;0.85;;;6.10;99.90;;;;;;5108889;27;20047;-69
2022/01/04 12:16:42;;;;;;;5.85;1.00;;;6.10;99.90;;;;;;5108566;27;20054;-73
2022/01/04 12:19:15;;;;;;;2.03;0.50;;;6.10;99.90;;;;;;5090795;27;20035;-72
2022/01/04 12:21:48;;;;;;;2.15;0.90;;;6.00;99.90;;;;;;5108239;27;20047;-74
2022/01/04 12:24:23;;;;;;;2.35;0.60;;;6.10;99.90;;;;;;5091152;27;20532;-72
2022/01/04 12:27:07;;;;;;;2.20;0.88;;;5.90;99.90;;;;;;5108832;27;20046;-72
2022/01/04 12:29:33;;;;;;;2.13;0.80;;;6.00;99.90;;;;;;5108418;27;20157;-72
2022/01/04 12:32:02;;;;;;;3.20;0.80;;;6.00;99.90;;;;;;5108608;27;20082;-72
2022/01/04 12:34:54;;;;;;;3.00;0.80;;;5.90;99.90;;;;;;5108251;27;20111;-71
2022/01/04 12:37:20;;;;;;;3.78;0.77;;;5.90;99.90;;;;;;5108267;27;20038;-70
2022/01/04 12:39:48;;;;;;;5.63;0.98;;;6.00;99.90;;;;;;5091804;27;20121;-74
2022/01/04 12:42:18;;;;;;;4.55;1.00;;;5.90;99.90;;;;;;5090726;27;20047;-72
2022/01/04 12:44:50;;;;;;;3.67;0.90;;;5.90;99.90;;;;;;5118269;27;20046;-73
2022/01/04 12:47:17;;;;;;;9.45;1.00;;;5.80;99.90;;;;;;5128362;27;20120;-72
2022/01/04 12:49:43;;;;;;;4.05;1.20;;;5.70;99.90;;;;;;5128761;27;20086;-71
2022/01/04 12:52:10;;;;;;;5.15;1.05;;;5.80;99.90;;;;;;5128040;27;20134;-72
2022/01/04 12:54:40;;;;;;;6.10;0.80;;;5.70;99.90;;;;;;5111945;27;20053;-72
2022/01/04 12:57:07;;;;;;;2.95;0.98;;;5.80;99.90;;;;;;5127268;27;20054;-73
2022/01/04 12:59:37;;;;;;;5.10;0.90;;;5.80;99.90;;;;;;5128711;27;20676;-72
2022/01/04 13:02:10;;;;;;;4.93;1.38;;;5.70;99.90;;;;;;5128548;27;20045;-74
2022/01/04 13:04:37;;;;;;;3.78;0.88;;;5.70;99.90;;;;;;5128534;27;20043;-73